SLLPSPZO

Guest
Details From SLLP - La Paz
To SPZO - TENIENTE ALEJANDRO VELASCO ASTETE INTL
Flight Number -
Tags generated
Created
Modified
Stats Distance 286 nm / 529 km
Max Altitude 32,400 ft / 9,876 m
Waypoints 5
Social Downloads 2
Likes 0
Share VATSIM

Download

Looking for another format? Having issues loading an existing format? Contact us
Advertisement - Login to hide

Notes

Basic altitude profile: - Ascent Rate: 2500ft/min - Ascent Speed: 250kts - Cruise Altitude: 35000ft - Cruise Speed: 420kts - Descent Rate: 1500ft/min - Descent Speed: 250kts Options: - Use NATs: yes - Use PACOTS: no - Use low airways: yes - Use high airways: no

Route

SLLP PAZ JUL V11 ILMOX SPZO

ID Type Via Altitude Latitude Longitude Leg Dist Tot Dist Heading (true) Name
O SLLP APT - 0 ft / 0 m -16.50936˚ -68.19055˚ - 0 nm - La Paz
PAZ VOR - 800 ft / 244 m -16.51205˚ -68.23345˚ 2 nm 2 nm 266° / 266° LA PAZ VOR-DME
JUL VOR - 32,400 ft / 9,876 m -15.46806˚ -70.15111˚ 127 nm 129 nm 299° / 300° JULIACA VOR-DME
ILMOX FIX V11 (AWY-LO) 20,000 ft / 6,096 m -14.59444˚ -70.84444˚ 66 nm 195 nm 322° / 323° -
O SPZO APT - 0 ft / 0 m -13.53572˚ -71.93878˚ 90 nm 285 nm 315° / 315° TENIENTE ALEJANDRO VELASCO ASTETE INTL

Altitude Profile

Advertisement - Login to hide

Weather


0- 5 10 15 20 25 30 35+ Temperature / ° C

Clouds and Precipitation
Forecast for 2018-05-26 18:00 UTC. Updated 4 hours ago

Ground ~20,000 ft ~40,000 ft Winds

SLLP

Details ICAO SLLP (LPB)
Name La Paz
Region Bolivia
Timezone America/La_Paz (UTC-4.0)
Stats Elevation 13,313 ft / 4,058 m (AMSL)
Location -16.509356° -68.190551°
Runways 2
Magnetic Variation 8.002° W

METAR

SLLP 262100Z 12004KT 9999 NSC 14/M08 Q1035

Decode

TAF

Not found

Departure Runways

ID Width Length Bearing (true) Bearing (mag) Surface Threshold Offset Overrun Length
10 151 ft / 46 m 13,106 ft / 3,995 m 91.90° 99.90° Concrete 0 ft / 0 m 200 ft / 61 m
10L 300 ft / 91 m 6,718 ft / 2,048 m 97.72° 105.72° Dirt 0 ft / 0 m 0 ft / 0 m
28 151 ft / 46 m 13,106 ft / 3,995 m 271.89° 279.89° Concrete 0 ft / 0 m 0 ft / 0 m
28R 300 ft / 91 m 6,718 ft / 2,048 m 277.71° 285.71° Dirt 0 ft / 0 m 0 ft / 0 m

SPZO

Details ICAO SPZO (CUZ)
Name TENIENTE ALEJANDRO VELASCO ASTETE INTL
Region Peru
Timezone America/Lima (UTC-5.0)
Stats Elevation 10,860 ft / 3,310 m (AMSL)
Location -13.535722° -71.938780°
Runways 1
Magnetic Variation 5.637° W

METAR

SPZO 262130Z 34006KT 9999 FEW050 19/M03 Q1028 NOSIG RMK BIRD HAZARD RWY 28

Decode

TAF

TAF SPZO 261110Z 2612/2712 VRB03KT 9999 NSC TX21/2619Z TN00/2 6000 -SHRA FEW020TCU SCT100 BECMG 2623/2703 00000KT 9999 FEW020

Decode

Destination Runways

ID Width Length Bearing (true) Bearing (mag) Surface Threshold Offset Overrun Length
10 148 ft / 45 m 11,135 ft / 3,394 m 95.97° 101.61° Asphalt 0 ft / 0 m 215 ft / 66 m
28 148 ft / 45 m 11,135 ft / 3,394 m 275.96° 281.60° Asphalt 0 ft / 0 m 200 ft / 61 m

Popular Alternatives